Time;durP1;ratioP1;P1;durP2;ratioP2;P2;SDS_P1;SDS_P2;PMS_P1;PMS_P2;Temp;Humidity;BMP_temperature;BMP_pressure;BME280_temperature;BME280_humidity;BME280_pressure;Samples;Min_cycle;Max_cycle;Signal;HPM_P1;HPM_P2
2022/08/31 00:05:20;;;;;;;12.38;3.75;;;;;;;23.26;45.60;99171.38;5253662;28;20094;-70
2022/08/31 00:08:10;;;;;;;7.88;3.65;;;;;;;23.24;45.15;99172.63;5266679;28;20055;-70
2022/08/31 00:11:00;;;;;;;5.43;3.67;;;;;;;23.25;45.29;99171.59;5265289;28;20059;-70
2022/08/31 00:13:51;;;;;;;7.40;4.20;;;;;;;23.24;44.99;99164.50;5266558;28;20055;-70
2022/08/31 00:16:43;;;;;;;9.80;4.00;;;;;;;23.24;45.27;99161.81;5266219;28;20318;-70
2022/08/31 00:19:34;;;;;;;5.68;3.83;;;;;;;23.10;45.47;99151.09;5266599;28;20043;-70
2022/08/31 00:22:24;;;;;;;6.45;3.65;;;;;;;23.13;46.30;99160.66;5266452;28;20118;-70
2022/08/31 00:25:14;;;;;;;12.05;4.70;;;;;;;23.14;45.82;99163.13;5251579;28;20055;-70
2022/08/31 00:28:05;;;;;;;6.03;3.70;;;;;;;23.06;46.84;99168.84;5265345;28;20062;-70
2022/08/31 00:30:55;;;;;;;7.10;4.10;;;;;;;22.93;47.45;99169.75;5264950;28;20442;-70
2022/08/31 00:33:51;;;;;;;5.07;3.90;;;;;;;22.94;47.07;99184.94;5255727;28;20044;-70
2022/08/31 00:36:41;;;;;;;10.07;3.75;;;;;;;23.00;47.31;99190.50;5264721;28;20133;-70
2022/08/31 00:39:31;;;;;;;6.43;3.85;;;;;;;22.29;48.46;99211.28;5266276;28;20054;-70
2022/08/31 00:42:22;;;;;;;6.13;3.90;;;;;;;21.95;49.00;99215.94;5265931;28;20632;-71
2022/08/31 00:45:12;;;;;;;10.85;4.15;;;;;;;22.47;48.38;99224.06;5234718;28;20078;-70
2022/08/31 00:48:02;;;;;;;8.32;4.18;;;;;;;22.38;48.28;99219.94;5250549;28;20133;-70
2022/08/31 00:50:53;;;;;;;6.13;3.60;;;;;;;22.46;48.36;99203.50;5249713;28;20632;-70
2022/08/31 00:53:44;;;;;;;6.57;3.55;;;;;;;22.88;46.21;99220.09;5264825;28;20047;-70
2022/08/31 00:56:39;;;;;;;8.88;4.05;;;;;;;22.62;46.71;99230.03;5264714;28;20121;-70
2022/08/31 00:59:30;;;;;;;7.47;3.63;;;;;;;22.66;47.40;99230.44;5253089;28;20513;-70
2022/08/31 01:02:20;;;;;;;8.90;3.50;;;;;;;22.93;46.01;99231.13;5264391;28;20071;-70
2022/08/31 01:05:12;;;;;;;6.82;3.60;;;;;;;22.66;47.14;99220.44;5265316;28;20059;-70
2022/08/31 01:08:04;;;;;;;5.93;3.58;;;;;;;22.65;47.79;99228.75;5261638;28;20537;-70
2022/08/31 01:10:54;;;;;;;8.88;3.75;;;;;;;22.64;48.11;99227.94;5258044;28;20040;-70
2022/08/31 01:13:45;;;;;;;9.35;3.63;;;;;;;22.59;48.32;99224.25;5265127;28;20402;-70
2022/08/31 01:16:51;;;;;;;7.35;3.95;;;;;;;22.40;50.32;99224.09;5249255;28;20615;-70
2022/08/31 01:19:52;;;;;;;7.88;4.22;;;;;;;22.55;51.72;99218.44;5265288;28;20048;-71
2022/08/31 01:23:03;;;;;;;9.52;4.78;;;;;;;21.92;55.16;99219.06;5264667;28;20181;-70
2022/08/31 01:25:56;;;;;;;7.07;4.95;;;;;;;22.11;55.33;99227.31;5264970;28;20117;-70
2022/08/31 01:28:49;;;;;;;7.10;5.03;;;;;;;22.13;55.22;99231.47;5264850;28;20544;-70
2022/08/31 01:31:43;;;;;;;6.25;4.60;;;;;;;22.27;54.61;99226.88;5248213;28;20055;-70
2022/08/31 01:34:33;;;;;;;8.20;5.05;;;;;;;21.83;57.27;99239.22;5264850;28;20417;-70
2022/08/31 01:37:23;;;;;;;7.70;4.53;;;;;;;22.09;56.68;99240.22;5264880;28;20109;-70
2022/08/31 01:40:19;;;;;;;9.02;5.63;;;;;;;21.64;59.39;99235.50;5265322;28;20048;-69
2022/08/31 01:43:10;;;;;;;9.43;5.65;;;;;;;22.10;58.01;99239.16;5263530;28;20502;-69
2022/08/31 01:46:03;;;;;;;9.07;5.72;;;;;;;21.79;58.87;99246.09;5238199;28;20056;-70
2022/08/31 01:48:55;;;;;;;7.80;5.63;;;;;;;22.24;57.98;99247.03;5264893;28;20052;-69
2022/08/31 01:51:46;;;;;;;10.38;5.13;;;;;;;22.13;58.50;99246.84;5248675;28;20044;-69
2022/08/31 01:54:38;;;;;;;9.10;5.53;;;;;;;21.76;59.71;99246.50;5263467;28;20472;-69
2022/08/31 01:57:29;;;;;;;7.10;5.30;;;;;;;21.82;59.17;99256.47;5233793;28;20044;-71
2022/08/31 02:00:42;;;;;;;10.85;5.70;;;;;;;21.70;59.08;99252.75;5264388;28;20231;-69
2022/08/31 02:03:33;;;;;;;8.63;5.50;;;;;;;21.60;59.42;99247.75;5248264;28;20102;-69
2022/08/31 02:06:24;;;;;;;10.55;4.97;;;;;;;21.75;59.62;99250.22;5264592;28;20113;-69
2022/08/31 02:09:15;;;;;;;7.53;5.15;;;;;;;21.94;58.32;99238.56;5264216;28;20070;-69
2022/08/31 02:12:05;;;;;;;8.30;5.50;;;;;;;21.83;59.21;99258.13;5264239;28;20652;-69
2022/08/31 02:14:55;;;;;;;7.10;5.25;;;;;;;21.88;59.46;99258.31;5264800;28;20048;-69
2022/08/31 02:17:46;;;;;;;10.98;6.07;;;;;;;21.58;60.35;99258.75;5259200;28;20538;-69
2022/08/31 02:20:41;;;;;;;8.75;6.15;;;;;;;21.77;59.58;99254.38;5267674;28;20429;-69
2022/08/31 02:23:33;;;;;;;7.57;5.53;;;;;;;21.46;60.80;99241.56;5253246;28;20047;-69
2022/08/31 02:26:23;;;;;;;7.40;6.05;;;;;;;21.73;59.92;99246.91;5268315;28;20496;-69
2022/08/31 02:29:14;;;;;;;7.25;5.13;;;;;;;21.75;60.35;99251.03;5267537;28;20052;-69
2022/08/31 02:32:04;;;;;;;8.82;5.28;;;;;;;21.71;60.15;99249.81;5252919;28;20087;-69
2022/08/31 02:34:54;;;;;;;8.80;6.03;;;;;;;21.52;61.11;99262.31;5251327;28;20054;-69
2022/08/31 02:37:46;;;;;;;9.35;5.90;;;;;;;21.72;60.50;99246.09;5268603;28;20161;-69
2022/08/31 02:40:39;;;;;;;8.73;5.72;;;;;;;21.64;60.83;99238.22;5267013;28;20185;-69
2022/08/31 02:43:31;;;;;;;9.18;5.90;;;;;;;21.73;60.75;99252.31;5252793;28;20432;-69
2022/08/31 02:46:22;;;;;;;8.02;5.90;;;;;;;21.85;60.56;99247.09;5267007;28;20465;-69
2022/08/31 02:49:34;;;;;;;11.45;6.30;;;;;;;21.47;62.02;99243.19;5256531;28;20047;-69
2022/08/31 02:52:25;;;;;;;6.63;5.80;;;;;;;21.40;61.45;99233.47;5252089;28;20044;-69
2022/08/31 02:55:16;;;;;;;7.28;5.78;;;;;;;21.79;60.73;99244.22;5266836;28;20048;-71
2022/08/31 02:58:07;;;;;;;9.80;6.03;;;;;;;21.77;60.61;99245.47;5252306;28;20054;-69
2022/08/31 03:00:58;;;;;;;9.90;5.93;;;;;;;21.67;60.86;99243.19;5252077;28;20055;-69
2022/08/31 03:03:48;;;;;;;11.45;5.75;;;;;;;21.63;61.21;99247.34;5252569;28;20412;-69
2022/08/31 03:06:39;;;;;;;7.72;6.05;;;;;;;21.75;60.79;99251.03;5266568;28;20078;-69
2022/08/31 03:09:30;;;;;;;7.47;5.55;;;;;;;21.71;60.29;99241.72;5252523;28;20121;-69
2022/08/31 03:12:20;;;;;;;8.82;5.95;;;;;;;21.63;60.54;99238.44;5251903;28;20051;-69
2022/08/31 03:15:11;;;;;;;7.32;5.43;;;;;;;21.54;61.21;99244.03;5252975;28;20059;-69
2022/08/31 03:18:01;;;;;;;10.98;6.05;;;;;;;21.29;62.14;99246.50;5252318;28;20090;-69
2022/08/31 03:20:56;;;;;;;8.20;5.78;;;;;;;21.47;60.58;99251.28;5252303;28;20130;-69
2022/08/31 03:23:46;;;;;;;7.80;5.50;;;;;;;21.49;60.49;99251.94;5267367;28;20507;-69
2022/08/31 03:26:36;;;;;;;11.57;6.10;;;;;;;21.53;60.44;99255.88;5252288;28;20478;-69
2022/08/31 03:29:26;;;;;;;10.15;5.68;;;;;;;21.55;61.05;99259.16;5252479;28;20051;-69
2022/08/31 03:32:17;;;;;;;9.70;6.20;;;;;;;21.46;61.49;99251.53;5267079;28;20178;-69
2022/08/31 03:35:11;;;;;;;7.88;6.05;;;;;;;21.60;61.27;99257.72;5237123;28;20426;-69
2022/08/31 03:38:02;;;;;;;8.20;6.00;;;;;;;21.55;61.56;99247.53;5266359;28;20550;-69
2022/08/31 03:40:52;;;;;;;8.40;6.15;;;;;;;21.72;61.05;99245.25;5266696;28;20059;-69
2022/08/31 03:43:43;;;;;;;8.30;5.93;;;;;;;21.56;61.39;99247.34;5267174;28;20494;-69
2022/08/31 03:46:34;;;;;;;8.48;6.32;;;;;;;21.52;61.73;99240.72;5266791;28;20195;-69
2022/08/31 03:49:25;;;;;;;8.63;5.63;;;;;;;21.64;61.19;99253.56;5252605;28;20083;-69
2022/08/31 03:52:31;;;;;;;9.52;6.43;;;;;;;21.42;62.14;99234.88;5264664;28;20141;-69
2022/08/31 03:55:33;;;;;;;10.80;6.20;;;;;;;21.46;61.99;99252.34;5266368;28;20044;-69
2022/08/31 03:58:23;;;;;;;11.07;6.15;;;;;;;21.39;62.64;99243.44;5252011;28;20498;-69
2022/08/31 04:01:14;;;;;;;8.88;6.10;;;;;;;21.36;62.91;99249.22;5240182;28;20322;-69
2022/08/31 04:04:40;;;;;;;9.27;6.78;;;;;;;21.48;62.67;99252.94;5181573;28;20061;-71
2022/08/31 04:07:53;;;;;;;12.82;7.70;;;;;;;21.31;64.21;99254.38;5266477;28;20105;-69
2022/08/31 04:11:12;;;;;;;11.50;7.80;;;;;;;21.26;64.34;99243.41;5266426;28;20505;-69
2022/08/31 04:14:21;;;;;;;12.95;7.80;;;;;;;21.29;65.06;99265.38;5266417;28;20062;-69
2022/08/31 04:17:32;;;;;;;12.38;6.97;;;;;;;21.23;64.97;99268.91;5252833;28;20059;-68
2022/08/31 04:20:42;;;;;;;11.27;7.13;;;;;;;21.28;64.74;99262.88;5263021;28;20060;-69
2022/08/31 04:23:33;;;;;;;12.35;7.55;;;;;;;21.11;65.25;99255.19;5250970;28;20063;-69
2022/08/31 04:26:28;;;;;;;10.68;7.43;;;;;;;21.23;64.85;99262.69;5245175;28;20239;-69
2022/08/31 04:29:18;;;;;;;9.73;7.15;;;;;;;21.16;65.35;99261.81;5266726;28;20414;-69
2022/08/31 04:32:09;;;;;;;10.68;7.28;;;;;;;21.15;65.52;99265.56;5249758;28;20047;-69
2022/08/31 04:35:00;;;;;;;10.63;7.30;;;;;;;21.33;65.21;99261.22;5264263;28;20076;-69
2022/08/31 04:37:51;;;;;;;13.73;7.85;;;;;;;21.32;64.71;99272.22;5262827;28;20078;-69
2022/08/31 04:40:42;;;;;;;10.80;7.30;;;;;;;21.26;64.96;99260.41;5262058;28;20075;-69
2022/08/31 04:43:33;;;;;;;12.15;7.65;;;;;;;21.13;65.68;99262.25;5264658;28;20540;-69
2022/08/31 04:46:24;;;;;;;11.73;7.72;;;;;;;21.29;64.86;99278.00;5250625;28;20059;-69
2022/08/31 04:49:16;;;;;;;11.07;7.60;;;;;;;21.27;65.47;99286.31;5250698;28;20563;-69
2022/08/31 04:52:08;;;;;;;12.95;7.75;;;;;;;21.04;66.59;99297.47;5264879;28;20078;-68
2022/08/31 04:54:58;;;;;;;17.13;7.90;;;;;;;21.17;66.63;99298.56;5250211;28;20102;-67
2022/08/31 04:57:49;;;;;;;17.48;8.20;;;;;;;20.99;66.64;99305.38;5249059;28;20101;-68
2022/08/31 05:00:42;;;;;;;10.73;7.00;;;;;;;20.90;67.39;99303.88;5264471;28;20444;-67
2022/08/31 05:03:44;;;;;;;;;;;;;;;21.07;66.08;99302.47;5250258;28;20694;-68
2022/08/31 05:06:37;;;;;;;11.05;7.63;;;;;;;20.99;66.78;99310.75;5243865;28;19920;-68
2022/08/31 05:09:27;;;;;;;11.55;7.80;;;;;;;21.16;65.51;99307.66;5247393;28;20149;-68
2022/08/31 05:12:18;;;;;;;15.57;7.80;;;;;;;21.09;66.36;99313.88;5249595;28;20051;-67
2022/08/31 05:15:09;;;;;;;15.00;7.70;;;;;;;20.96;67.13;99315.69;5249881;28;20510;-68
2022/08/31 05:17:59;;;;;;;11.45;8.10;;;;;;;21.05;66.28;99319.88;5265563;28;20131;-68
2022/08/31 05:20:52;;;;;;;13.00;8.40;;;;;;;21.03;66.57;99322.78;5249756;28;20204;-68
2022/08/31 05:23:45;;;;;;;13.32;8.18;;;;;;;20.74;67.20;99328.50;5263744;28;20279;-68
2022/08/31 05:26:39;;;;;;;14.25;9.07;;;;;;;20.95;66.92;99324.81;5249791;28;20123;-67
2022/08/31 05:29:31;;;;;;;15.18;9.10;;;;;;;21.02;66.68;99328.38;5248085;28;20571;-68
2022/08/31 05:32:48;;;;;;;16.85;9.10;;;;;;;20.90;66.43;99328.16;5252996;28;20536;-70
2022/08/31 05:35:39;;;;;;;14.38;8.27;;;;;;;20.96;66.64;99326.47;5249667;28;20137;-69
2022/08/31 05:38:30;;;;;;;11.27;8.48;;;;;;;21.07;65.60;99325.91;5249552;28;20468;-70
2022/08/31 05:41:22;;;;;;;10.07;7.68;;;;;;;20.87;66.50;99328.53;5248981;28;20051;-70
2022/08/31 05:44:13;;;;;;;10.13;7.60;;;;;;;21.22;65.33;99325.72;5263451;28;20055;-70
2022/08/31 05:47:06;;;;;;;12.68;8.07;;;;;;;21.03;65.09;99317.41;5250610;28;20059;-69
2022/08/31 05:49:56;;;;;;;13.60;7.93;;;;;;;21.14;64.62;99329.44;5249312;28;20491;-70
2022/08/31 05:52:46;;;;;;;14.13;7.55;;;;;;;21.15;64.51;99328.41;5233625;28;20051;-70
2022/08/31 05:55:37;;;;;;;10.75;7.57;;;;;;;20.72;65.89;99336.75;5262279;28;20128;-70
2022/08/31 05:58:29;;;;;;;9.50;6.82;;;;;;;21.01;64.73;99327.53;5262524;28;20085;-69
2022/08/31 06:01:24;;;;;;;10.13;7.25;;;;;;;20.96;64.65;99332.72;5248842;28;20512;-69
2022/08/31 06:04:26;;;;;;;10.65;7.28;;;;;;;21.30;62.84;99312.88;5245643;28;20067;-69
2022/08/31 06:07:16;;;;;;;10.32;6.70;;;;;;;21.19;63.09;99336.91;5248785;28;20106;-69
2022/08/31 06:10:13;;;;;;;13.40;6.95;;;;;;;21.07;62.72;99332.13;5248774;28;20063;-70
2022/08/31 06:13:05;;;;;;;8.88;6.60;;;;;;;21.14;61.50;99334.00;5244009;28;20098;-69
2022/08/31 06:15:59;;;;;;;10.40;5.82;;;;;;;21.25;61.16;99325.31;5248854;28;20130;-69
2022/08/31 06:18:50;;;;;;;14.57;6.50;;;;;;;21.46;59.06;99333.28;5263992;28;20079;-69
2022/08/31 06:21:42;;;;;;;8.88;6.22;;;;;;;21.25;58.51;99347.72;5247887;28;20066;-70
2022/08/31 06:24:42;;;;;;;7.70;4.68;;;;;;;21.40;56.46;99346.75;5247966;28;20098;-70
2022/08/31 06:27:37;;;;;;;8.73;5.20;;;;;;;20.99;56.03;99356.59;5258698;28;20055;-70
2022/08/31 06:30:28;;;;;;;8.13;4.75;;;;;;;20.66;56.11;99353.72;5262974;28;20052;-70
2022/08/31 06:33:18;;;;;;;6.50;4.70;;;;;;;20.81;56.55;99356.31;5263348;28;20055;-70
2022/08/31 06:36:25;;;;;;;7.75;4.88;;;;;;;20.87;56.44;99339.31;5263437;28;20490;-70
2022/08/31 06:39:21;;;;;;;7.47;4.90;;;;;;;20.78;56.55;99356.69;5263727;28;20423;-70
2022/08/31 06:42:22;;;;;;;8.38;4.60;;;;;;;20.91;56.72;99345.16;5250906;28;20048;-70
2022/08/31 06:45:30;;;;;;;6.55;4.68;;;;;;;20.86;56.75;99338.50;5262624;28;20083;-69
2022/08/31 06:48:45;;;;;;;8.32;4.78;;;;;;;21.00;56.46;99360.94;5234993;28;20120;-69
2022/08/31 06:51:36;;;;;;;10.75;5.20;;;;;;;21.07;56.56;99367.19;5248428;28;20417;-69
2022/08/31 06:54:27;;;;;;;11.52;5.18;;;;;;;21.16;56.19;99364.28;5262787;28;20051;-69
2022/08/31 06:57:46;;;;;;;11.60;5.28;;;;;;;21.24;55.64;99356.03;5242453;28;20055;-69
2022/08/31 07:00:57;;;;;;;5.93;4.55;;;;;;;21.32;54.74;99363.91;5251725;28;20071;-69
2022/08/31 07:04:06;;;;;;;10.70;5.00;;;;;;;21.11;55.56;99370.28;5252982;28;20059;-69
2022/08/31 07:06:56;;;;;;;11.05;5.05;;;;;;;21.41;55.40;99375.38;5252855;28;20102;-69
2022/08/31 07:09:47;;;;;;;8.18;5.10;;;;;;;21.23;55.43;99373.25;5239039;28;20051;-69
2022/08/31 07:12:37;;;;;;;9.38;4.80;;;;;;;21.31;55.64;99368.47;5267739;28;20540;-69
2022/08/31 07:15:28;;;;;;;11.13;4.97;;;;;;;21.34;56.37;99370.81;5266949;28;20055;-69
2022/08/31 07:18:18;;;;;;;10.48;5.00;;;;;;;21.48;56.13;99374.34;5252607;28;20051;-69
2022/08/31 07:21:16;;;;;;;8.27;4.82;;;;;;;21.26;56.54;99370.16;5252176;28;20421;-69
2022/08/31 07:24:06;;;;;;;11.60;4.75;;;;;;;21.74;54.15;99353.84;5267937;28;20441;-69
2022/08/31 07:27:01;;;;;;;6.57;4.45;;;;;;;21.10;56.41;99365.94;5252360;28;20052;-69
2022/08/31 07:29:59;;;;;;;11.35;4.85;;;;;;;21.30;55.29;99371.41;5252627;28;20055;-69
2022/08/31 07:32:52;;;;;;;16.30;5.28;;;;;;;21.52;55.44;99375.63;5251826;28;20558;-69
2022/08/31 07:35:46;;;;;;;8.88;4.85;;;;;;;21.39;56.04;99370.22;5266374;28;20426;-69
2022/08/31 07:42:08;;;;;;;13.25;4.97;;;;;;;21.29;55.75;99367.00;5266435;28;20677;-70
2022/08/31 07:45:04;;;;;;;6.15;4.78;;;;;;;21.85;54.29;99369.41;5266903;28;20052;-70
2022/08/31 07:47:56;;;;;;;7.88;4.43;;;;;;;21.45;54.93;99368.53;5266436;28;20055;-69
2022/08/31 07:50:48;;;;;;;11.05;4.97;;;;;;;21.82;54.00;99377.94;5267139;28;20549;-71
2022/08/31 07:54:06;;;;;;;6.90;4.90;;;;;;;21.67;53.81;99380.81;5267379;28;20055;-69
2022/08/31 07:57:18;;;;;;;10.52;5.25;;;;;;;21.81;53.91;99365.47;5266485;28;20090;-70
2022/08/31 08:00:17;;;;;;;9.95;4.70;;;;;;;22.08;53.02;99381.66;5252388;28;20055;-70
2022/08/31 08:03:11;;;;;;;9.38;5.20;;;;;;;21.89;53.28;99384.16;5251434;28;20117;-70
2022/08/31 08:06:34;;;;;;;10.13;4.88;;;;;;;21.70;53.07;99385.81;5248731;28;20048;-70
2022/08/31 08:09:33;;;;;;;10.57;5.20;;;;;;;21.48;53.38;99395.94;5251784;28;20075;-70
2022/08/31 08:12:45;;;;;;;6.78;4.60;;;;;;;21.64;53.26;99402.00;5251063;28;20154;-70
2022/08/31 08:15:43;;;;;;;;;;;;;;;21.45;54.51;99407.13;5266596;28;20386;-70
2022/08/31 08:18:51;;;;;;;12.57;5.20;;;;;;;21.62;53.88;99414.84;5265445;28;20492;-70
2022/08/31 08:21:47;;;;;;;7.70;5.50;;;;;;;21.73;52.92;99408.84;5250795;28;20176;-70
2022/08/31 08:24:45;;;;;;;8.68;5.20;;;;;;;21.78;53.67;99411.75;5265462;28;20135;-70
2022/08/31 08:27:57;;;;;;;7.03;4.93;;;;;;;21.67;53.91;99415.06;5266415;28;20436;-70
2022/08/31 08:30:59;;;;;;;15.10;4.95;;;;;;;21.76;53.66;99411.97;5265327;28;20064;-69
2022/08/31 08:33:53;;;;;;;12.02;6.10;;;;;;;21.65;53.43;99409.03;5250821;28;20178;-70
2022/08/31 08:36:44;;;;;;;14.93;5.43;;;;;;;21.40;54.89;99403.41;5251204;28;20418;-70
2022/08/31 08:39:34;;;;;;;12.10;5.18;;;;;;;21.21;55.50;99399.56;5251350;28;20055;-70
2022/08/31 08:42:34;;;;;;;8.65;5.22;;;;;;;21.60;54.75;99417.75;5250375;28;20059;-70
2022/08/31 08:45:24;;;;;;;19.77;5.78;;;;;;;21.86;53.57;99411.56;5265236;28;20098;-69
2022/08/31 08:48:20;;;;;;;16.00;5.35;;;;;;;21.67;54.36;99423.16;5265557;28;20560;-70
2022/08/31 08:51:17;;;;;;;16.90;5.38;;;;;;;21.79;54.03;99418.84;5264640;28;20121;-70
2022/08/31 08:54:27;;;;;;;13.63;5.30;;;;;;;21.85;54.61;99426.09;5250558;28;20055;-70
2022/08/31 08:57:24;;;;;;;8.70;4.75;;;;;;;21.90;54.58;99429.00;5249774;28;20075;-70
2022/08/31 09:00:24;;;;;;;7.10;5.15;;;;;;;22.10;54.09;99426.31;5264983;28;20055;-70
2022/08/31 09:03:32;;;;;;;14.00;4.72;;;;;;;22.06;53.58;99433.19;5250368;28;20063;-69
2022/08/31 09:07:21;;;;;;;17.02;5.05;;;;;;;22.02;53.80;99426.53;5265826;28;20131;-70
2022/08/31 09:10:33;;;;;;;8.02;5.13;;;;;;;22.37;52.99;99427.16;5238312;28;20090;-70
2022/08/31 09:13:52;;;;;;;9.40;4.75;;;;;;;21.68;54.23;99420.25;5264493;28;20441;-70
2022/08/31 09:16:48;;;;;;;12.20;6.55;;;;;;;21.63;55.33;99438.13;5250139;28;20094;-70
2022/08/31 09:20:00;;;;;;;7.07;5.10;;;;;;;21.90;54.11;99425.47;5264680;28;20052;-70
2022/08/31 09:22:54;;;;;;;8.30;5.10;;;;;;;22.21;53.61;99438.38;5249832;28;20052;-70
2022/08/31 09:25:50;;;;;;;8.55;5.55;;;;;;;22.39;52.21;99433.19;5264205;28;20047;-69
2022/08/31 09:29:02;;;;;;;8.25;5.40;;;;;;;22.41;52.14;99428.38;5265672;28;20106;-70
2022/08/31 09:32:04;;;;;;;11.63;5.38;;;;;;;22.33;51.44;99430.50;5265113;28;20422;-70
2022/08/31 09:35:22;;;;;;;6.93;5.18;;;;;;;22.65;50.51;99426.06;5265144;28;20445;-70
2022/08/31 09:38:30;;;;;;;11.50;4.97;;;;;;;22.47;51.27;99434.84;5265191;28;20054;-70
2022/08/31 09:41:31;;;;;;;10.35;5.78;;;;;;;22.33;52.07;99428.63;5264654;28;20429;-69
2022/08/31 09:44:33;;;;;;;13.15;5.15;;;;;;;22.05;52.61;99428.78;5265305;28;20052;-70
2022/08/31 09:47:54;;;;;;;9.95;5.32;;;;;;;22.66;51.83;99435.84;5264798;28;20158;-70
2022/08/31 09:50:45;;;;;;;6.28;4.93;;;;;;;22.74;51.25;99435.59;5264444;28;20048;-70
2022/08/31 09:56:56;;;;;;;13.23;5.65;;;;;;;22.85;50.82;99437.66;5265207;28;20603;-69
2022/08/31 09:59:50;;;;;;;7.85;5.25;;;;;;;22.89;51.36;99429.97;5266180;28;20075;-69
2022/08/31 10:02:41;;;;;;;14.25;5.13;;;;;;;22.61;50.48;99428.34;5265636;28;20140;-70
2022/08/31 10:05:39;;;;;;;8.77;5.22;;;;;;;22.59;50.73;99429.63;5264987;28;20651;-70
2022/08/31 10:08:40;;;;;;;12.90;5.55;;;;;;;22.90;50.74;99424.31;5265033;28;20071;-70
2022/08/31 10:11:33;;;;;;;9.32;5.20;;;;;;;23.18;50.28;99424.06;5265204;28;20050;-69
2022/08/31 10:14:40;;;;;;;8.52;5.82;;;;;;;23.06;50.78;99439.28;5265600;28;20110;-69
2022/08/31 10:17:37;;;;;;;9.88;5.13;;;;;;;23.44;50.02;99435.75;5265355;28;20498;-69
2022/08/31 10:20:38;;;;;;;7.55;5.63;;;;;;;23.27;49.41;99435.44;5265395;28;20059;-69
2022/08/31 10:23:35;;;;;;;13.88;5.65;;;;;;;23.25;49.94;99436.72;5250173;28;20422;-69
2022/08/31 10:26:35;;;;;;;9.10;5.40;;;;;;;23.41;48.80;99438.91;5265122;28;20056;-69
2022/08/31 10:29:44;;;;;;;8.48;5.63;;;;;;;23.09;49.85;99432.63;5265201;28;20417;-69
2022/08/31 10:32:40;;;;;;;12.82;5.43;;;;;;;23.48;49.82;99438.88;5265193;28;20083;-69
2022/08/31 10:35:48;;;;;;;9.00;5.10;;;;;;;23.77;48.61;99441.00;5265273;28;20044;-70
2022/08/31 10:38:46;;;;;;;9.88;5.63;;;;;;;23.66;49.26;99441.69;5268197;28;20048;-70
2022/08/31 10:41:41;;;;;;;11.77;5.93;;;;;;;23.67;48.72;99421.69;5269153;28;20051;-70
2022/08/31 10:44:51;;;;;;;9.23;5.25;;;;;;;24.00;48.47;99432.31;5268267;28;20123;-69
2022/08/31 10:47:45;;;;;;;8.45;6.13;;;;;;;23.34;49.64;99435.41;5268908;28;20056;-70
2022/08/31 10:51:07;;;;;;;9.60;5.65;;;;;;;23.13;49.84;99429.25;5269113;28;20129;-69
2022/08/31 10:54:15;;;;;;;8.07;5.93;;;;;;;23.56;49.59;99430.50;5268530;28;20087;-70
2022/08/31 10:57:45;;;;;;;13.00;6.30;;;;;;;23.77;49.05;99432.88;5268745;28;20048;-70
2022/08/31 11:01:08;;;;;;;8.80;5.88;;;;;;;23.41;49.66;99431.63;5268612;28;20136;-70
2022/08/31 11:04:13;;;;;;;8.98;5.80;;;;;;;23.53;49.92;99433.66;5251960;28;20075;-70
2022/08/31 11:07:11;;;;;;;9.70;5.88;;;;;;;23.56;49.54;99434.03;5268671;28;20407;-70
2022/08/31 11:10:12;;;;;;;9.48;5.85;;;;;;;23.37;50.12;99424.16;5268718;28;20055;-70
2022/08/31 11:13:07;;;;;;;8.25;5.55;;;;;;;23.87;48.27;99429.69;5268566;28;20494;-70
2022/08/31 11:16:22;;;;;;;12.98;5.88;;;;;;;23.33;49.32;99437.28;5268380;28;20055;-70
2022/08/31 11:19:28;;;;;;;8.82;5.57;;;;;;;22.88;50.37;99434.53;5268299;28;20126;-70
2022/08/31 11:22:37;;;;;;;7.97;5.93;;;;;;;23.10;50.42;99431.56;5268435;28;20094;-69
2022/08/31 11:25:49;;;;;;;8.10;5.25;;;;;;;23.16;49.30;99425.31;5268103;28;20040;-70
2022/08/31 11:28:48;;;;;;;17.20;6.10;;;;;;;22.78;50.83;99431.47;5268489;28;20052;-69
2022/08/31 11:31:40;;;;;;;12.25;5.55;;;;;;;23.34;49.47;99436.22;5268391;28;20080;-70
2022/08/31 11:34:44;;;;;;;9.05;5.90;;;;;;;22.91;50.78;99434.13;5268107;28;20045;-70
2022/08/31 11:37:49;;;;;;;;;;;;;;;23.25;49.79;99429.44;5268409;28;20197;-69
2022/08/31 11:40:43;;;;;;;;;;;;;;;22.98;50.58;99429.53;5268282;28;20405;-70
2022/08/31 11:43:40;;;;;;;7.93;5.78;;;;;;;22.95;50.67;99426.44;5266660;28;19927;-70
2022/08/31 11:46:37;;;;;;;9.35;5.63;;;;;;;23.50;50.72;99424.06;5268100;28;20265;-69
2022/08/31 11:49:36;;;;;;;10.32;6.20;;;;;;;23.14;50.87;99414.69;5266186;28;20217;-70
2022/08/31 11:52:41;;;;;;;12.05;7.10;;;;;;;22.93;49.51;99426.63;5267587;28;20074;-70
2022/08/31 11:55:48;;;;;;;8.45;6.13;;;;;;;23.29;49.88;99413.59;5267495;28;20059;-70
2022/08/31 11:58:41;;;;;;;8.48;5.95;;;;;;;23.47;49.78;99429.91;5267461;28;20182;-69
2022/08/31 12:01:34;;;;;;;11.38;6.35;;;;;;;23.15;50.73;99418.25;5268085;28;20445;-70
2022/08/31 12:04:44;;;;;;;10.55;6.40;;;;;;;23.56;49.55;99411.56;5267326;28;20419;-69
2022/08/31 12:07:35;;;;;;;8.52;5.80;;;;;;;23.57;49.12;99418.63;5267465;28;20056;-70
2022/08/31 12:10:49;;;;;;;10.20;6.03;;;;;;;23.50;50.86;99415.13;5267325;28;20087;-70
2022/08/31 12:13:47;;;;;;;13.45;6.70;;;;;;;23.42;50.06;99414.34;5267156;28;20044;-69
2022/08/31 12:17:20;;;;;;;14.63;6.75;;;;;;;23.55;49.40;99416.16;5265931;28;20055;-69
2022/08/31 12:20:23;;;;;;;9.05;6.22;;;;;;;23.66;49.40;99415.44;5267158;28;20498;-69
2022/08/31 12:23:35;;;;;;;13.07;6.30;;;;;;;23.59;50.09;99405.72;5267243;28;20117;-69
2022/08/31 12:26:39;;;;;;;8.50;6.38;;;;;;;24.07;48.04;99399.75;5266845;28;20414;-69
2022/08/31 12:29:38;;;;;;;9.88;6.50;;;;;;;24.34;46.62;99400.34;5251322;28;20058;-69
2022/08/31 12:32:35;;;;;;;14.02;6.20;;;;;;;24.26;48.83;99396.03;5267061;28;20079;-69
2022/08/31 12:35:29;;;;;;;9.85;5.93;;;;;;;24.75;48.21;99401.63;5266521;28;20091;-69
2022/08/31 12:38:22;;;;;;;12.90;6.82;;;;;;;25.28;45.33;99395.56;5266899;28;20056;-69
2022/08/31 12:41:13;;;;;;;11.93;6.00;;;;;;;25.37;46.88;99393.34;5266628;28;20058;-70
2022/08/31 12:44:04;;;;;;;9.80;7.10;;;;;;;25.29;45.41;99392.59;5266874;28;20048;-70
2022/08/31 12:47:32;;;;;;;10.35;5.32;;;;;;;25.39;46.90;99383.91;5266821;28;20063;-70
2022/08/31 12:50:35;;;;;;;14.35;6.10;;;;;;;25.40;45.30;99384.75;5266170;28;20062;-69
2022/08/31 12:53:50;;;;;;;10.18;6.32;;;;;;;25.19;45.48;99384.19;5266386;28;20052;-69
2022/08/31 12:56:57;;;;;;;10.55;5.70;;;;;;;24.54;48.11;99379.31;5266380;28;20084;-70
2022/08/31 13:00:07;;;;;;;13.95;6.18;;;;;;;24.95;46.52;99372.38;5266358;28;20055;-70
2022/08/31 13:03:16;;;;;;;11.00;5.80;;;;;;;25.15;46.01;99369.41;5266546;28;20055;-69
2022/08/31 13:06:12;;;;;;;10.70;6.00;;;;;;;24.94;46.99;99362.56;5264917;28;20572;-70
2022/08/31 13:09:04;;;;;;;6.95;5.85;;;;;;;25.04;45.89;99357.44;5266201;28;20044;-70
2022/08/31 13:11:59;;;;;;;9.48;5.80;;;;;;;24.46;47.54;99344.38;5265912;28;20544;-70
2022/08/31 13:14:49;;;;;;;10.65;5.97;;;;;;;24.98;46.75;99347.50;5265547;28;20055;-69
2022/08/31 13:17:39;;;;;;;8.63;5.40;;;;;;;25.02;46.83;99339.72;5265770;28;20055;-70
2022/08/31 13:20:39;;;;;;;7.25;5.07;;;;;;;25.47;46.07;99344.75;5265633;28;20044;-70
2022/08/31 13:23:35;;;;;;;9.23;5.50;;;;;;;25.69;45.32;99348.56;5265959;28;20079;-69
2022/08/31 13:26:26;;;;;;;11.07;5.85;;;;;;;25.11;45.96;99341.06;5266151;28;20074;-70
2022/08/31 13:29:22;;;;;;;10.90;5.75;;;;;;;25.48;46.24;99333.66;5265579;28;20059;-70
2022/08/31 13:32:31;;;;;;;10.85;5.80;;;;;;;25.46;46.13;99329.50;5250415;28;20460;-69
2022/08/31 13:35:27;;;;;;;6.68;5.05;;;;;;;25.60;45.61;99339.13;5265183;28;20047;-69
2022/08/31 13:38:19;;;;;;;8.50;4.97;;;;;;;25.30;45.06;99321.00;5265641;28;20059;-70
2022/08/31 13:41:21;;;;;;;8.98;5.57;;;;;;;25.22;46.10;99326.72;5265623;28;20110;-69
2022/08/31 13:44:13;;;;;;;10.50;5.40;;;;;;;25.56;44.98;99316.19;5265185;28;20047;-69
2022/08/31 13:47:11;;;;;;;10.02;5.22;;;;;;;25.27;45.16;99321.44;5265360;28;20051;-69
2022/08/31 13:50:17;;;;;;;8.98;4.72;;;;;;;25.46;45.38;99324.94;5265410;28;20521;-70
2022/08/31 13:53:36;;;;;;;8.15;5.53;;;;;;;25.52;43.13;99310.41;5265224;28;20341;-69
2022/08/31 13:59:39;;;;;;;8.52;5.10;;;;;;;25.25;44.04;99303.72;5264907;28;20528;-69
2022/08/31 14:02:31;;;;;;;7.18;5.47;;;;;;;25.74;43.38;99283.50;5264989;28;20438;-70
2022/08/31 14:05:35;;;;;;;6.45;5.10;;;;;;;26.18;42.83;99288.59;5265007;28;20055;-70
2022/08/31 14:08:27;;;;;;;8.52;4.80;;;;;;;26.37;42.89;99289.28;5265429;28;20325;-69